Elbella — 9HA2358 — position and weather

sailwx.info

Track history (hours):
 
Tides and Currents Weather Stations Pressure Air Temp Water Temp Dewpoint Dewpoint Depression Visibility Wind Speed Wind Dir Waves Ship Positions

Elbella

Last reported at 2016-Jul-26 11:34 UTC. Time now 2016-Jul-26 12:17 UTC.
Position N 35°48' E 014°36'.

Length 176 m; draft 8 m.

Type: Cargo ship. MMSI: 248422000.

Date/timePositionNaut miles runAvg speedWind from/ knotsBaromVisibWave heightAir tempDewpointWater temp
2016-Jul-26 11:34N 35°48' E 014°36'3 3.0
2016-Jul-26 10:34N 35°50' E 014°39'0 0.0
2016-Jul-26 09:34N 35°50' E 014°39'0 0.0
2016-Jul-26 08:34N 35°50' E 014°39'0 0.0
2016-Jul-26 07:34N 35°50' E 014°39'0 0.0
2016-Jul-26 01:34N 35°50' E 014°39'0 0.0
2016-Jul-25 19:13N 35°50' E 014°39'0 0.0
2016-Jul-25 17:28N 35°50' E 014°39'0 0.0
2016-Jul-25 14:04N 35°50' E 014°39'0 0.0
2016-Jul-25 13:27N 35°50' E 014°39'0 0.0
2016-Jul-25 12:33N 35°50' E 014°39'0 0.0
2016-Jul-25 11:33N 35°50' E 014°39'0 0.0
2016-Jul-25 10:27N 35°50' E 014°39'0 0.0
2016-Jul-25 09:33N 35°50' E 014°39'0 0.0
2016-Jul-25 08:33N 35°50' E 014°39'0 0.0
2016-Jul-25 07:34N 35°50' E 014°39'0 0.0
2016-Jul-25 06:34N 35°50' E 014°39'0 0.0
2016-Jul-25 05:33N 35°50' E 014°39'0 0.0
2016-Jul-25 04:34N 35°50' E 014°39'0 0.0
2016-Jul-25 03:33N 35°50' E 014°39'0 0.0
2016-Jul-25 02:34N 35°50' E 014°39'0 0.0
2016-Jul-25 01:34N 35°50' E 014°39'0 0.0
2016-Jul-25 00:34N 35°50' E 014°39'0 0.0
2016-Jul-24 23:34N 35°50' E 014°39'1 0.6
2016-Jul-24 22:34N 35°50' E 014°39'1615.8
2016-Jul-24 21:34N 35°49' E 014°59'1717.2
2016-Jul-24 20:33N 35°48' E 015°20'  
2016-Jul-17 19:31N 34°57' E 035°34'1412.1
2016-Jul-17 18:20N 34°54' E 035°52'0 0.1
2016-Jul-17 16:04N 34°55' E 035°52'0 0.0
2016-Jul-17 15:07N 34°55' E 035°52'0 0.0
2016-Jul-17 14:31N 34°55' E 035°52'0 0.0
2016-Jul-17 13:31N 34°55' E 035°52'0 0.0
2016-Jul-17 12:31N 34°55' E 035°52'1 0.3
2016-Jul-17 10:05N 34°55' E 035°51'1 1.4
2016-Jul-17 09:14N 34°54' E 035°50'0 0.0
2016-Jul-17 08:33N 34°54' E 035°50'18 8.1
2016-Jul-17 06:23N 34°55' E 035°29'13 6.9
2016-Jul-17 04:33N 35°01' E 035°16'3 0.6
2016-Jul-16 23:05N 34°58' E 035°16'0 0.6
2016-Jul-16 22:32N 34°58' E 035°17'2 0.5
2016-Jul-16 18:14N 34°56' E 035°17'1 0.3
2016-Jul-16 16:10N 34°55' E 035°17'1 1.5
2016-Jul-16 15:32N 34°54' E 035°18'1414.2
2016-Jul-16 14:32N 34°40' E 035°17'1616.9
2016-Jul-16 13:34N 34°24' E 035°16'1716.6
2016-Jul-16 12:34N 34°07' E 035°14'1312.7
2016-Jul-16 11:34N 33°55' E 035°18'  
Track history (hours):
 
Tides and Currents Weather Stations Pressure Air Temp Water Temp Dewpoint Dewpoint Depression Visibility Wind Speed Wind Dir Waves Ship Positions

Elbella

Last reported at 2016-Jul-26 11:34 UTC. Time now 2016-Jul-26 12:17 UTC.
Position N 35°48' E 014°36'.

Length 176 m; draft 8 m.

Type: Cargo ship. MMSI: 248422000.

Date/timePositionNaut miles runAvg speedWind from/ knotsBaromVisibWave heightAir tempDewpointWater temp
2016-Jul-26 11:34N 35°48' E 014°36'3 3.0
2016-Jul-26 10:34N 35°50' E 014°39'0 0.0
2016-Jul-26 09:34N 35°50' E 014°39'0 0.0
2016-Jul-26 08:34N 35°50' E 014°39'0 0.0
2016-Jul-26 07:34N 35°50' E 014°39'0 0.0
2016-Jul-26 01:34N 35°50' E 014°39'0 0.0
2016-Jul-25 19:13N 35°50' E 014°39'0 0.0
2016-Jul-25 17:28N 35°50' E 014°39'0 0.0
2016-Jul-25 14:04N 35°50' E 014°39'0 0.0
2016-Jul-25 13:27N 35°50' E 014°39'0 0.0
2016-Jul-25 12:33N 35°50' E 014°39'0 0.0
2016-Jul-25 11:33N 35°50' E 014°39'0 0.0
2016-Jul-25 10:27N 35°50' E 014°39'0 0.0
2016-Jul-25 09:33N 35°50' E 014°39'0 0.0
2016-Jul-25 08:33N 35°50' E 014°39'0 0.0
2016-Jul-25 07:34N 35°50' E 014°39'0 0.0
2016-Jul-25 06:34N 35°50' E 014°39'0 0.0
2016-Jul-25 05:33N 35°50' E 014°39'0 0.0
2016-Jul-25 04:34N 35°50' E 014°39'0 0.0
2016-Jul-25 03:33N 35°50' E 014°39'0 0.0
2016-Jul-25 02:34N 35°50' E 014°39'0 0.0
2016-Jul-25 01:34N 35°50' E 014°39'0 0.0
2016-Jul-25 00:34N 35°50' E 014°39'0 0.0
2016-Jul-24 23:34N 35°50' E 014°39'1 0.6
2016-Jul-24 22:34N 35°50' E 014°39'1615.8
2016-Jul-24 21:34N 35°49' E 014°59'1717.2
2016-Jul-24 20:33N 35°48' E 015°20'  
2016-Jul-17 19:31N 34°57' E 035°34'1412.1
2016-Jul-17 18:20N 34°54' E 035°52'0 0.1
2016-Jul-17 16:04N 34°55' E 035°52'0 0.0
2016-Jul-17 15:07N 34°55' E 035°52'0 0.0
2016-Jul-17 14:31N 34°55' E 035°52'0 0.0
2016-Jul-17 13:31N 34°55' E 035°52'0 0.0
2016-Jul-17 12:31N 34°55' E 035°52'1 0.3
2016-Jul-17 10:05N 34°55' E 035°51'1 1.4
2016-Jul-17 09:14N 34°54' E 035°50'0 0.0
2016-Jul-17 08:33N 34°54' E 035°50'18 8.1
2016-Jul-17 06:23N 34°55' E 035°29'13 6.9
2016-Jul-17 04:33N 35°01' E 035°16'3 0.6
2016-Jul-16 23:05N 34°58' E 035°16'0 0.6
2016-Jul-16 22:32N 34°58' E 035°17'2 0.5
2016-Jul-16 18:14N 34°56' E 035°17'1 0.3
2016-Jul-16 16:10N 34°55' E 035°17'1 1.5
2016-Jul-16 15:32N 34°54' E 035°18'1414.2
2016-Jul-16 14:32N 34°40' E 035°17'1616.9
2016-Jul-16 13:34N 34°24' E 035°16'1716.6
2016-Jul-16 12:34N 34°07' E 035°14'1312.7
2016-Jul-16 11:34N 33°55' E 035°18'  

Dump ship's entire track history